This is the latest recevied weather packets stored in our database for station/object KO4ZGL-13. If no packets are shown the sender has not sent any weather packets the latest 10 day(s).
| Time | Temp. | Humidity | Pressure | Rain* | Wind** | Luminosity | Snow |
|---|---|---|---|---|---|---|---|
| 1778085464 | 28.33° C | 61% | 1017.4 hPa | 0 mm | - | 452 W/m² | - |
| 1778085159 | 28.33° C | 62% | 1017.3 hPa | 0 mm | - | 508 W/m² | - |
| 1778084855 | 27.78° C | 63% | 1017.3 hPa | 0 mm | - | 698 W/m² | - |
| 1778084552 | 27.78° C | 63% | 1017.3 hPa | 0 mm | - | 516 W/m² | - |
| 1778084244 | 27.78° C | 62% | 1017.3 hPa | 0 mm | - | 466 W/m² | - |
| 1778083941 | 27.22° C | 64% | 1017.1 hPa | 0 mm | - | 739 W/m² | - |
| 1778083639 | 27.22° C | 64% | 1017 hPa | 0 mm | - | 479 W/m² | - |
| 1778083335 | 26.11° C | 67% | 1017.3 hPa | 0 mm | - | 639 W/m² | - |
| 1778083034 | 26.67° C | 65% | 1017.5 hPa | 0 mm | - | 373 W/m² | - |
| 1778082730 | 26.67° C | 67% | 1017.3 hPa | 0 mm | - | 474 W/m² | - |
| 1778081592 | 25.56° C | 69% | 1017.5 hPa | 0 mm | - | 213 W/m² | - |
| 1778081289 | 26.11° C | 69% | 1017.5 hPa | 0 mm | - | 247 W/m² | - |
| 1778080986 | 26.67° C | 68% | 1017.8 hPa | 0 mm | - | 359 W/m² | - |
| 1778080685 | 26.11° C | 67% | 1017.4 hPa | 0 mm | - | 410 W/m² | - |
| 1778080381 | 26.11° C | 68% | 1017.5 hPa | 0 mm | - | 487 W/m² | - |
| 1778080078 | 26.11° C | 68% | 1017.5 hPa | 0 mm | - | 512 W/m² | - |
| 1778079775 | 26.11° C | 70% | 1017.4 hPa | 0 mm | - | 441 W/m² | - |
| 1778079472 | 26.11° C | 69% | 1017.4 hPa | 0 mm | - | 438 W/m² | - |
| 1778079168 | 26.11° C | 70% | 1017.4 hPa | 0 mm | - | 806 W/m² | - |
| 1778078866 | 25° C | 72% | 1017.2 hPa | 0 mm | - | 779 W/m² | - |
| 1778078563 | 25° C | 72% | 1017.6 hPa | 0 mm | - | 707 W/m² | - |
| 1778078260 | 23.89° C | 75% | 1017.4 hPa | 0 mm | - | 718 W/m² | - |
| 1778077958 | 23.89° C | 76% | 1017.4 hPa | 0 mm | - | 382 W/m² | - |
| 1778077656 | 23.89° C | 74% | 1017.2 hPa | 0 mm | - | 266 W/m² | - |
| 1778077354 | 23.89° C | 73% | 1017.1 hPa | 0 mm | - | 428 W/m² | - |
* Rain latest hour (hover to see other rain measurements)
** Current wind speed in m/s (hover to see current wind gust speed)